Terminal Aerodrome Forecast
Issued by NWS Tampa Bay Area, FL

Home | Current Version | Previous Version | Text Only | Print | Product List | Glossary On
Versions: 1 2 3 4 5 6 7 8 9 10 11 12 13 14 15 16 17 18 19 20 21 22 23 24 25 26 27 28
118
FTUS42 KTBW 250107 AAB
TAFTPA
TAF AMD
KTPA 250107Z 2501/2524 30006KT P6SM FEW010 SCT050
     FM250200 VRB04KT P6SM SCT010 SCT050
      TEMPO 2502/2506 BKN010
     FM250600 VRB04KT 6SM BR SCT005 BKN015
     FM250900 VRB03KT 4SM BR SCT005 BKN015
     FM251500 26007KT P6SM SCT020 BKN030
     FM251700 27008KT P6SM SCT035=

USA.gov is the U.S. government's official web portal to all federal, state and local government web resources and services.